Flight Track Log - Related Links

Times and Time Zones

All times are in EDT time to prevent confusion due to time zone crossing. See the AAL1326 flight status page for this flight to view local times or setup timezone preferences in your user account.

Time Position Orientation Groundspeed Altitude Reporting Facility
EDT Latitude Longitude Course Direction KTS MPH feet Rate Location/Type
Thu 07:05:47 PM 41.9333 -87.9000 180° South 162 186 2,100  Level Chicago TRACON
Thu 07:06:54 PM 41.8833 -87.8833 166° South 209 241 4,200 1,835 Climbing Chicago TRACON
Thu 07:07:48 PM 41.8333 -87.8500 154° Southeast 233 268 5,800 2,370 Climbing Chicago TRACON
Thu 07:09:00 PM 41.5542 -87.6491 167° South  Level Estimated
Thu 07:10:00 PM 41.4473 -87.5853 180° South  Level Estimated
Thu 07:10:14 PM 41.6719 -87.8053 168° South 258 297 12,100  Level Chicago Center
Thu 07:11:00 PM 41.3403 -87.5217 180° South  Level Estimated
Thu 07:11:15 PM 41.5956 -87.7800 166° South 279 321 15,100  Level Chicago Center
Thu 07:12:17 PM 41.5206 -87.7572 167° South 278 320 18,600 2,613 Climbing Chicago Center
Thu 07:13:19 PM 41.4461 -87.7344 167° South 272 313 20,500 1,548 Climbing Chicago Center
Thu 07:14:21 PM 41.3572 -87.7264 176° South 317 365 21,800 1,403 Climbing Chicago Center
Thu 07:15:23 PM 41.2619 -87.7267 180° South 337 388 23,400 1,756 Climbing Chicago Center
Thu 07:16:24 PM 41.1408 -87.7186 177° South 361 415 25,400 1,756 Climbing Chicago Center
Thu 07:17:26 PM 41.0369 -87.7042 174° South 373 429 27,000 1,403 Climbing Chicago Center
Thu 07:18:28 PM 40.9300 -87.6894 174° South 384 442 28,300 1,366 Climbing Chicago Center
Thu 07:19:29 PM 40.8206 -87.6753 174° South 393 452 29,800 1,415 Climbing Chicago Center
Thu 07:20:31 PM 40.7122 -87.6433 167° South 405 466 31,200 1,258 Climbing Chicago Center
Thu 07:21:33 PM 40.6044 -87.6056 165° South 402 463 32,400 1,317 Climbing Chicago Center
Thu 07:22:34 PM 40.4958 -87.5708 166° South 402 463 33,900 1,463 Climbing Chicago Center
Thu 07:23:36 PM 40.3689 -87.5283 166° South 397 457 35,400 1,366 Climbing Chicago Center
Thu 07:24:37 PM 40.2636 -87.4942 166° South 392 451 36,700 780 Climbing Chicago Center
Thu 07:25:39 PM 40.1603 -87.4586 165° South 388 447 37,000 176 Climbing Chicago Center
Thu 07:26:19 PM 40.0942 -87.4333 164° South 389 448 37,000  Level Indianapolis Center
Thu 07:27:20 PM 39.9889 -87.3989 166° South 388 447 37,000  Level Indianapolis Center
Thu 07:28:22 PM 39.8886 -87.3317 153° Southeast 402 463 37,000  Level Indianapolis Center
Thu 07:29:23 PM 39.7875 -87.2650 153° Southeast 403 464 37,000  Level Indianapolis Center
Thu 07:30:24 PM 39.6875 -87.1978 153° Southeast 404 465 37,000  Level Indianapolis Center
Thu 07:31:26 PM 39.5839 -87.1294 153° Southeast 413 475 37,000 488 Level Indianapolis Center
Thu 07:32:27 PM 39.4608 -87.0467 153° Southeast 412 474 38,000 492 Climbing Indianapolis Center
Thu 07:33:28 PM 39.3561 -86.9775 153° Southeast 417 480 38,000  Level Indianapolis Center
Thu 07:34:30 PM 39.2528 -86.9092 153° Southeast 416 479 38,000  Level Indianapolis Center
Thu 07:35:31 PM 39.1489 -86.8419 153° Southeast 415 478 38,000  Level Indianapolis Center
Thu 07:36:32 PM 39.0444 -86.7703 152° Southeast 420 483 38,000 195 Level Indianapolis Center
Thu 07:37:34 PM 38.9392 -86.6994 152° Southeast 423 487 38,400 488 Climbing Indianapolis Center
Thu 07:38:35 PM 38.8333 -86.6269 152° Southeast 426 490 39,000 295 Climbing Indianapolis Center
Thu 07:39:36 PM 38.7275 -86.5569 153° Southeast 425 489 39,000  Level Indianapolis Center
Thu 07:40:38 PM 38.6208 -86.4847 152° Southeast 427 491 39,000  Level Indianapolis Center
Thu 07:41:39 PM 38.5133 -86.4136 153° Southeast 430 495 39,000  Level Indianapolis Center
Thu 07:42:40 PM 38.4053 -86.3403 152° Southeast 434 499 39,000  Level Indianapolis Center
Thu 07:43:42 PM 38.2958 -86.2678 153° Southeast 437 503 39,000  Level Indianapolis Center
Thu 07:44:43 PM 38.1867 -86.1956 153° Southeast 437 503 39,000  Level Indianapolis Center
Thu 07:45:44 PM 38.0772 -86.1244 153° Southeast 437 503 39,000  Level Indianapolis Center
Thu 07:46:46 PM 37.9675 -86.0514 152° Southeast 442 509 39,000  Level Indianapolis Center
Thu 07:47:47 PM 37.8581 -85.9811 153° Southeast 439 505 39,000  Level Indianapolis Center
Thu 07:48:49 PM 37.7486 -85.9089 152° Southeast 439 505 39,000  Level Indianapolis Center
Thu 07:49:50 PM 37.6386 -85.8386 153° Southeast 439 505 39,000  Level Indianapolis Center
Thu 07:50:51 PM 37.5072 -85.7519 152° Southeast 442 509 39,000  Level Indianapolis Center
Thu 07:51:53 PM 37.3953 -85.6800 153° Southeast 446 513 39,000  Level Indianapolis Center
Thu 07:52:54 PM 37.2856 -85.6106 153° Southeast 448 516 39,000  Level Indianapolis Center
Thu 07:53:55 PM 37.1728 -85.5381 153° Southeast 449 517 39,000  Level Indianapolis Center
Thu 07:54:57 PM 37.0542 -85.4614 153° Southeast 448 516 39,000  Level Indianapolis Center
Thu 07:55:58 PM 36.9333 -85.4017 158° South 445 512 39,000  Level Indianapolis Center
Thu 07:57:00 PM 36.8142 -85.3675 167° South 438 504 39,000  Level Indianapolis Center
Thu 07:58:01 PM 36.6961 -85.3308 166° South 438 504 39,000  Level Indianapolis Center
Thu 07:59:02 PM 36.5767 -85.2953 167° South 439 505 39,000  Level Indianapolis Center
Thu 08:00:03 PM 36.4575 -85.2603 167° South 440 506 39,000  Level Indianapolis Center
Thu 08:01:05 PM 36.3381 -85.2231 166° South 442 509 39,000  Level Indianapolis Center
Thu 08:01:41 PM 36.2656 -85.2028 167° South 448 516 39,000  Level Atlanta Center
Thu 08:02:41 PM 36.1450 -85.1675 167° South 448 516 39,000  Level Atlanta Center
Thu 08:03:41 PM 36.0242 -85.1325 167° South 448 516 39,000 -450 Level Atlanta Center
Thu 08:04:41 PM 35.9036 -85.1000 168° South 448 516 38,100 -950 Descending Atlanta Center
Thu 08:05:41 PM 35.7808 -85.0625 166° South 453 521 37,100 -1,000 Descending Atlanta Center
Thu 08:06:41 PM 35.6622 -85.0253 166° South 448 516 36,100 -1,150 Descending Atlanta Center
Thu 08:07:41 PM 35.5311 -84.9856 166° South 443 510 34,800 -1,550 Descending Atlanta Center
Thu 08:08:41 PM 35.4083 -84.9511 167° South 451 519 33,000 -1,750 Descending Atlanta Center
Thu 08:09:41 PM 35.2833 -84.9139 166° South 456 525 31,300 -1,000 Descending Atlanta Center
Thu 08:10:41 PM 35.1583 -84.8772 167° South 462 532 31,000 -150 Descending Atlanta Center
Thu 08:11:41 PM 35.0333 -84.8403 166° South 462 532 31,000 700 Level Atlanta Center
Thu 08:12:41 PM 34.9083 -84.8011 166° South 467 537 32,400 1,000 Climbing Atlanta Center
Thu 08:13:41 PM 34.7814 -84.7672 168° South 467 537 33,000 300 Climbing Atlanta Center
Thu 08:14:41 PM 34.6689 -84.7333 166° South 467 537 33,000  Level Atlanta Center
Thu 08:15:41 PM 34.5356 -84.6944 166° South 462 532 33,000  Level Atlanta Center
Thu 08:16:41 PM 34.4064 -84.6556 166° South 462 532 33,000  Level Atlanta Center
Thu 08:17:41 PM 34.2792 -84.6219 168° South 469 540 33,000  Level Atlanta Center
Thu 08:18:41 PM 34.1542 -84.5836 166° South 469 540 33,000  Level Atlanta Center
Thu 08:19:41 PM 34.0333 -84.5528 168° South 480 552 33,000  Level Atlanta Center
Thu 08:20:41 PM 33.9081 -84.5144 166° South 480 552 33,000  Level Atlanta Center
Thu 08:21:41 PM 33.7808 -84.4811 168° South 474 545 33,000  Level Atlanta Center
Thu 08:22:41 PM 33.6517 -84.4456 167° South 474 545 33,000  Level Atlanta Center
Thu 08:23:41 PM 33.5100 -84.3875 161° South 474 545 33,000 -200 Level Atlanta Center
Thu 08:24:41 PM 33.3828 -84.3350 161° South 479 551 32,600 -700 Descending Atlanta Center
Thu 08:25:41 PM 33.2575 -84.2822 161° South 479 551 31,600 -800 Descending Atlanta Center
Thu 08:26:41 PM 33.1344 -84.2322 161° South 479 551 31,000 -300 Descending Atlanta Center
Thu 08:27:41 PM 33.0136 -84.1775 159° South 479 551 31,000  Level Atlanta Center
Thu 08:28:41 PM 32.8883 -84.1328 163° South 474 545 31,000 -500 Level Atlanta Center
Thu 08:29:41 PM 32.7672 -84.0808 160° South 468 539 30,000 -1,000 Descending Atlanta Center
Thu 08:30:41 PM 32.6419 -84.0289 161° South 468 539 29,000 -500 Descending Atlanta Center
Thu 08:31:41 PM 32.5189 -83.9772 161° South 473 544 29,000  Level Atlanta Center
Thu 08:32:41 PM 32.3936 -83.9258 161° South 473 544 29,000  Level Atlanta Center
Thu 08:34:56 PM 32.1089 -83.8100 161° South 466 536 29,000  Level Jacksonville Center
Thu 08:35:56 PM 31.9861 -83.7597 161° South 473 544 29,000  Level Jacksonville Center
Thu 08:36:56 PM 31.8569 -83.7144 163° South 479 551 29,000  Level Jacksonville Center
Thu 08:37:56 PM 31.7319 -83.6522 157° South 485 558 29,000  Level Jacksonville Center
Thu 08:38:56 PM 31.6111 -83.6075 163° South 502 578 29,000  Level Jacksonville Center
Thu 08:39:56 PM 31.4842 -83.5578 162° South 497 572 29,000  Level Jacksonville Center
Thu 08:40:56 PM 31.3550 -83.5081 162° South 497 572 29,000  Level Jacksonville Center
Thu 08:41:56 PM 31.2300 -83.4561 160° South 492 566 29,000  Level Jacksonville Center
Thu 08:42:56 PM 31.1006 -83.4069 162° South 487 560 29,000  Level Jacksonville Center
Thu 08:43:56 PM 30.9714 -83.3553 161° South 487 560 29,000  Level Jacksonville Center
Thu 08:44:56 PM 30.8422 -83.3039 161° South 487 560 29,000  Level Jacksonville Center
Thu 08:45:56 PM 30.7044 -83.2406 158° South 482 555 29,000  Level Jacksonville Center
Thu 08:46:56 PM 30.5794 -83.1797 157° South 488 562 29,000  Level Jacksonville Center
Thu 08:47:56 PM 30.4500 -83.1119 156° South 496 571 29,000  Level Jacksonville Center
Thu 08:48:56 PM 30.3228 -83.0489 157° South 496 571 29,000  Level Jacksonville Center
Thu 08:49:56 PM 30.1914 -82.9839 157° South 501 577 29,000  Level Jacksonville Center
Thu 08:50:56 PM 30.0619 -82.9189 157° South 501 577 29,000  Level Jacksonville Center
Thu 08:51:56 PM 29.9408 -82.8639 159° South 506 582 29,000  Level Jacksonville Center
Thu 08:52:56 PM 29.8092 -82.7992 157° South 511 588 29,000  Level Jacksonville Center
Thu 08:53:56 PM 29.6797 -82.7347 157° South 511 588 29,000  Level Jacksonville Center
Thu 08:54:56 PM 29.5481 -82.6706 157° South 511 588 29,000  Level Jacksonville Center
Thu 08:55:56 PM 29.4186 -82.6017 155° Southeast 516 594 29,000  Level Jacksonville Center
Thu 08:56:56 PM 29.2869 -82.5403 158° South 516 594 29,000  Level Jacksonville Center
Thu 08:57:56 PM 29.1572 -82.4764 157° South 510 587 29,000  Level Jacksonville Center
Thu 08:58:56 PM 29.0194 -82.4486 170° South 510 587 29,000  Level Jacksonville Center
Thu 08:59:56 PM 28.8797 -82.4564 183° South 498 573 29,000  Level Jacksonville Center
Thu 09:00:56 PM 28.7419 -82.4664 184° South 498 573 29,000  Level Jacksonville Center
Thu 09:01:56 PM 28.6022 -82.4764 184° South 498 573 29,000  Level Jacksonville Center
Thu 09:02:56 PM 28.4622 -82.4864 184° South 498 573 29,000  Level Jacksonville Center
Thu 09:04:51 PM 28.1919 -82.4978 182° South 510 587 29,000  Level Miami Center
Thu 09:05:51 PM 28.0497 -82.5094 184° South 510 587 29,000  Level Miami Center
Thu 09:06:51 PM 27.9144 -82.5003 177° South 504 580 29,000  Level Miami Center
Thu 09:07:51 PM 27.7769 -82.4442 160° South 500 575 29,000  Level Miami Center
Thu 09:08:51 PM 27.6431 -82.3978 163° South 510 587 29,000  Level Miami Center
Thu 09:09:51 PM 27.4908 -82.3414 162° South 510 587 29,000  Level Miami Center
Thu 09:10:51 PM 27.3617 -82.2814 158° South 517 595 29,000  Level Miami Center
Thu 09:11:51 PM 27.2503 -82.1853 143° Southeast 504 580 29,000  Level Miami Center
Thu 09:12:51 PM 27.1514 -82.0942 141° Southeast 515 593 29,000 -500 Level Miami Center
Thu 09:13:51 PM 27.0300 -81.9864 142° Southeast 515 593 28,000 -950 Descending Miami Center
Thu 09:14:51 PM 26.9328 -81.9028 143° Southeast 510 587 27,100 -1,150 Descending Miami Center
Thu 09:15:51 PM 26.8317 -81.8122 141° Southeast 487 560 25,700 -1,850 Descending Miami Center
Thu 09:16:51 PM 26.7322 -81.7267 142° Southeast 467 537 23,400 -2,300 Descending Miami Center
Thu 09:17:51 PM 26.6392 -81.6392 140° Southeast 453 521 21,100 -2,200 Descending Miami Center
Thu 09:18:51 PM 26.5375 -81.5517 142° Southeast 426 490 19,000 -1,300 Descending Miami Center
Thu 09:19:51 PM 26.4622 -81.4861 142° Southeast 412 474 18,500 -1,200 Descending Miami Center
Thu 09:20:51 PM 26.3811 -81.4156 142° Southeast 392 451 16,600 -2,050 Descending Miami Center
Thu 09:21:51 PM 26.3019 -81.3408 140° Southeast 378 435 14,400 -2,100 Descending Miami Center
Thu 09:22:51 PM 26.2506 -81.2461 121° Southeast 357 411 12,400 -2,182 Descending Miami Center
Thu 09:23:30 PM 26.2108 -81.1731 121° Southeast 346 398 10,800 -2,000 Descending Miami Center
Thu 09:23:51 PM 26.2053 -81.1519 106° East 357 411 10,400 -706 Descending Miami Center
Thu 09:24:38 PM 26.1614 -81.0808 125° Southeast 293 337 10,000 -944 Descending Miami Center
Thu 09:25:39 PM 26.1217 -81.0078 121° Southeast 282 325 8,700 -1,180 Descending Miami Center
Thu 09:26:40 PM 26.1053 -80.9264 103° East 274 315 7,600 -1,041 Descending Miami Center
Thu 09:27:40 PM 26.1014 -80.8358 93° East 269 310 6,600 -793 Descending Miami Center
Thu 09:28:41 PM 26.0953 -80.7547 95° East 265 305 6,000 -310 Descending Miami Center
Thu 09:29:36 PM 26.0911 -80.6806 94° East 264 304 6,000 -171 Level Miami Center
Thu 09:29:51 PM 26.0933 -80.6692 78° East 262 302 5,800 -987 Descending Miami Center
Thu 09:30:55 PM 26.0856 -80.5717 95° East 263 303 4,700 -956 Descending Miami Center
Thu 09:31:44 PM 26.0828 -80.5139 93° East 249 287 4,000 -569 Descending Miami Center
Thu 09:32:51 PM 26.0806 -80.4375 92° East 247 284 3,600 -470 Descending Miami Center
Thu 09:33:39 PM 26.0736 -80.3772 97° East 219 252 3,100 -550 Descending Miami Center
Thu 09:34:40 PM 26.0750 -80.3147 89° East 191 220 2,600 -492 Descending Miami Center

Login

Don't have an account? Register now (free) for customized features, flight alerts, and more!